sensor_id;sensor_type;location;lat;lon;timestamp;P1;durP1;ratioP1;P2;durP2;ratioP2
665;SDS011;315;48.738;9.126;2024-01-06T00:01:36;6.53;;;5.97;;
665;SDS011;315;48.738;9.126;2024-01-06T00:04:01;4.60;;;4.20;;
665;SDS011;315;48.738;9.126;2024-01-06T00:06:27;7.80;;;5.47;;
665;SDS011;315;48.738;9.126;2024-01-06T00:08:52;5.70;;;2.60;;
665;SDS011;315;48.738;9.126;2024-01-06T00:11:20;4.00;;;3.63;;
665;SDS011;315;48.738;9.126;2024-01-06T00:13:46;3.33;;;3.03;;
665;SDS011;315;48.738;9.126;2024-01-06T00:16:11;4.30;;;3.03;;
665;SDS011;315;48.738;9.126;2024-01-06T00:18:37;4.30;;;3.80;;
665;SDS011;315;48.738;9.126;2024-01-06T00:21:04;4.67;;;3.60;;
665;SDS011;315;48.738;9.126;2024-01-06T00:23:29;5.70;;;3.70;;
665;SDS011;315;48.738;9.126;2024-01-06T00:25:55;3.40;;;2.67;;
665;SDS011;315;48.738;9.126;2024-01-06T00:28:21;4.60;;;3.57;;
665;SDS011;315;48.738;9.126;2024-01-06T00:30:46;3.53;;;2.50;;
665;SDS011;315;48.738;9.126;2024-01-06T00:33:12;4.40;;;2.83;;
665;SDS011;315;48.738;9.126;2024-01-06T00:35:37;4.70;;;2.40;;
665;SDS011;315;48.738;9.126;2024-01-06T00:38:03;4.20;;;2.50;;
665;SDS011;315;48.738;9.126;2024-01-06T00:40:29;2.80;;;2.00;;
665;SDS011;315;48.738;9.126;2024-01-06T00:42:54;3.33;;;2.10;;
665;SDS011;315;48.738;9.126;2024-01-06T00:45:20;2.67;;;2.00;;
665;SDS011;315;48.738;9.126;2024-01-06T00:47:45;4.50;;;1.80;;
665;SDS011;315;48.738;9.126;2024-01-06T00:50:11;4.13;;;2.43;;
665;SDS011;315;48.738;9.126;2024-01-06T00:52:37;3.97;;;2.00;;
665;SDS011;315;48.738;9.126;2024-01-06T00:55:02;2.70;;;2.50;;
665;SDS011;315;48.738;9.126;2024-01-06T00:57:28;3.90;;;2.07;;
665;SDS011;315;48.738;9.126;2024-01-06T00:59:53;3.13;;;2.10;;
665;SDS011;315;48.738;9.126;2024-01-06T01:02:19;5.17;;;2.37;;
665;SDS011;315;48.738;9.126;2024-01-06T01:04:44;3.23;;;2.20;;
665;SDS011;315;48.738;9.126;2024-01-06T01:07:10;4.23;;;2.80;;
665;SDS011;315;48.738;9.126;2024-01-06T01:09:37;3.40;;;2.40;;
665;SDS011;315;48.738;9.126;2024-01-06T01:12:02;4.77;;;2.30;;
665;SDS011;315;48.738;9.126;2024-01-06T01:14:28;4.77;;;3.03;;
665;SDS011;315;48.738;9.126;2024-01-06T01:16:53;4.30;;;3.20;;
665;SDS011;315;48.738;9.126;2024-01-06T01:19:19;5.73;;;2.37;;
665;SDS011;315;48.738;9.126;2024-01-06T01:21:44;3.00;;;2.50;;
665;SDS011;315;48.738;9.126;2024-01-06T01:24:10;6.33;;;3.13;;
665;SDS011;315;48.738;9.126;2024-01-06T01:26:35;7.73;;;3.20;;
665;SDS011;315;48.738;9.126;2024-01-06T01:29:01;4.73;;;2.47;;
665;SDS011;315;48.738;9.126;2024-01-06T01:31:27;3.47;;;2.40;;
665;SDS011;315;48.738;9.126;2024-01-06T01:33:52;7.50;;;2.47;;
665;SDS011;315;48.738;9.126;2024-01-06T01:36:18;4.63;;;2.37;;
665;SDS011;315;48.738;9.126;2024-01-06T01:38:43;6.33;;;2.53;;
665;SDS011;315;48.738;9.126;2024-01-06T01:41:09;2.37;;;1.97;;
665;SDS011;315;48.738;9.126;2024-01-06T01:43:34;5.57;;;2.60;;
665;SDS011;315;48.738;9.126;2024-01-06T01:46:00;3.60;;;2.47;;
665;SDS011;315;48.738;9.126;2024-01-06T01:48:26;3.10;;;2.73;;
665;SDS011;315;48.738;9.126;2024-01-06T01:50:52;3.67;;;2.30;;
665;SDS011;315;48.738;9.126;2024-01-06T01:53:18;5.47;;;2.37;;
665;SDS011;315;48.738;9.126;2024-01-06T01:55:45;8.30;;;2.77;;
665;SDS011;315;48.738;9.126;2024-01-06T01:58:12;7.47;;;3.13;;
665;SDS011;315;48.738;9.126;2024-01-06T02:00:38;8.27;;;3.20;;
665;SDS011;315;48.738;9.126;2024-01-06T02:03:04;5.03;;;2.90;;
665;SDS011;315;48.738;9.126;2024-01-06T02:05:31;4.90;;;3.00;;
665;SDS011;315;48.738;9.126;2024-01-06T02:07:56;6.00;;;2.90;;
665;SDS011;315;48.738;9.126;2024-01-06T02:10:22;4.50;;;2.63;;
665;SDS011;315;48.738;9.126;2024-01-06T02:12:48;5.17;;;3.23;;
665;SDS011;315;48.738;9.126;2024-01-06T02:15:14;5.23;;;2.33;;
665;SDS011;315;48.738;9.126;2024-01-06T02:17:39;3.30;;;2.77;;
665;SDS011;315;48.738;9.126;2024-01-06T02:20:05;4.10;;;2.93;;
665;SDS011;315;48.738;9.126;2024-01-06T02:22:33;2.30;;;2.03;;
665;SDS011;315;48.738;9.126;2024-01-06T02:25:00;7.40;;;2.93;;
665;SDS011;315;48.738;9.126;2024-01-06T02:27:27;3.37;;;2.40;;
665;SDS011;315;48.738;9.126;2024-01-06T02:29:52;6.37;;;2.63;;
665;SDS011;315;48.738;9.126;2024-01-06T02:32:18;3.80;;;1.87;;
665;SDS011;315;48.738;9.126;2024-01-06T02:34:43;7.03;;;2.47;;
665;SDS011;315;48.738;9.126;2024-01-06T02:37:09;4.60;;;3.90;;
665;SDS011;315;48.738;9.126;2024-01-06T02:39:34;4.83;;;2.67;;
665;SDS011;315;48.738;9.126;2024-01-06T02:42:00;4.97;;;2.30;;
665;SDS011;315;48.738;9.126;2024-01-06T02:44:25;6.73;;;2.97;;
665;SDS011;315;48.738;9.126;2024-01-06T02:46:51;3.43;;;2.43;;
665;SDS011;315;48.738;9.126;2024-01-06T02:49:17;3.20;;;2.70;;
665;SDS011;315;48.738;9.126;2024-01-06T02:51:42;5.30;;;2.63;;
665;SDS011;315;48.738;9.126;2024-01-06T02:54:08;6.93;;;3.00;;
665;SDS011;315;48.738;9.126;2024-01-06T02:56:33;5.67;;;3.20;;
665;SDS011;315;48.738;9.126;2024-01-06T02:58:59;4.73;;;2.90;;
665;SDS011;315;48.738;9.126;2024-01-06T03:01:24;7.50;;;3.07;;
665;SDS011;315;48.738;9.126;2024-01-06T03:03:50;6.77;;;2.50;;
665;SDS011;315;48.738;9.126;2024-01-06T03:06:15;8.60;;;3.17;;
665;SDS011;315;48.738;9.126;2024-01-06T03:08:41;5.07;;;2.37;;
665;SDS011;315;48.738;9.126;2024-01-06T03:11:07;4.20;;;2.40;;
665;SDS011;315;48.738;9.126;2024-01-06T03:13:33;2.40;;;2.20;;
665;SDS011;315;48.738;9.126;2024-01-06T03:16:01;6.07;;;3.17;;
665;SDS011;315;48.738;9.126;2024-01-06T03:18:29;7.63;;;3.27;;
665;SDS011;315;48.738;9.126;2024-01-06T03:20:55;6.20;;;2.60;;
665;SDS011;315;48.738;9.126;2024-01-06T03:23:20;3.60;;;2.70;;
665;SDS011;315;48.738;9.126;2024-01-06T03:25:46;3.53;;;2.60;;
665;SDS011;315;48.738;9.126;2024-01-06T03:28:11;2.60;;;2.40;;
665;SDS011;315;48.738;9.126;2024-01-06T03:30:37;3.23;;;2.93;;
665;SDS011;315;48.738;9.126;2024-01-06T03:33:02;2.90;;;2.47;;
665;SDS011;315;48.738;9.126;2024-01-06T03:35:28;5.00;;;2.47;;
665;SDS011;315;48.738;9.126;2024-01-06T03:37:54;3.40;;;2.60;;
665;SDS011;315;48.738;9.126;2024-01-06T03:40:20;4.17;;;2.70;;
665;SDS011;315;48.738;9.126;2024-01-06T03:42:45;7.23;;;2.70;;
665;SDS011;315;48.738;9.126;2024-01-06T03:45:11;3.77;;;2.63;;
665;SDS011;315;48.738;9.126;2024-01-06T03:47:36;6.60;;;2.87;;
665;SDS011;315;48.738;9.126;2024-01-06T03:50:02;3.93;;;2.50;;
665;SDS011;315;48.738;9.126;2024-01-06T03:52:28;2.30;;;2.07;;
665;SDS011;315;48.738;9.126;2024-01-06T03:54:53;11.70;;;3.27;;
665;SDS011;315;48.738;9.126;2024-01-06T03:57:18;3.63;;;2.60;;
665;SDS011;315;48.738;9.126;2024-01-06T03:59:44;9.93;;;2.53;;
665;SDS011;315;48.738;9.126;2024-01-06T04:02:09;4.27;;;2.87;;
665;SDS011;315;48.738;9.126;2024-01-06T04:04:35;4.27;;;2.73;;
665;SDS011;315;48.738;9.126;2024-01-06T04:07:00;4.03;;;2.50;;
665;SDS011;315;48.738;9.126;2024-01-06T04:09:26;3.87;;;2.70;;
665;SDS011;315;48.738;9.126;2024-01-06T04:11:52;3.13;;;2.47;;
665;SDS011;315;48.738;9.126;2024-01-06T04:14:17;5.77;;;2.73;;
665;SDS011;315;48.738;9.126;2024-01-06T04:16:43;5.47;;;3.20;;
665;SDS011;315;48.738;9.126;2024-01-06T04:19:08;3.83;;;2.17;;
665;SDS011;315;48.738;9.126;2024-01-06T04:21:36;3.33;;;3.03;;
665;SDS011;315;48.738;9.126;2024-01-06T04:24:01;4.57;;;3.10;;
665;SDS011;315;48.738;9.126;2024-01-06T04:26:27;2.40;;;2.20;;
665;SDS011;315;48.738;9.126;2024-01-06T04:28:52;8.40;;;2.60;;
665;SDS011;315;48.738;9.126;2024-01-06T04:31:18;3.63;;;2.37;;
665;SDS011;315;48.738;9.126;2024-01-06T04:33:43;3.07;;;2.60;;
665;SDS011;315;48.738;9.126;2024-01-06T04:36:09;8.83;;;3.00;;
665;SDS011;315;48.738;9.126;2024-01-06T04:38:34;4.37;;;3.30;;
665;SDS011;315;48.738;9.126;2024-01-06T04:41:00;5.97;;;2.83;;
665;SDS011;315;48.738;9.126;2024-01-06T04:43:25;4.30;;;2.80;;
665;SDS011;315;48.738;9.126;2024-01-06T04:45:51;4.33;;;2.67;;
665;SDS011;315;48.738;9.126;2024-01-06T04:48:16;3.60;;;2.73;;
665;SDS011;315;48.738;9.126;2024-01-06T04:50:42;5.13;;;3.00;;
665;SDS011;315;48.738;9.126;2024-01-06T04:53:07;3.50;;;2.60;;
665;SDS011;315;48.738;9.126;2024-01-06T04:55:33;5.23;;;2.90;;
665;SDS011;315;48.738;9.126;2024-01-06T04:57:58;3.63;;;2.40;;
665;SDS011;315;48.738;9.126;2024-01-06T05:00:24;5.20;;;2.87;;
665;SDS011;315;48.738;9.126;2024-01-06T05:02:50;5.10;;;2.53;;
665;SDS011;315;48.738;9.126;2024-01-06T05:05:16;2.67;;;2.47;;
665;SDS011;315;48.738;9.126;2024-01-06T05:07:41;4.93;;;2.93;;
665;SDS011;315;48.738;9.126;2024-01-06T05:10:07;2.60;;;2.23;;
665;SDS011;315;48.738;9.126;2024-01-06T05:12:33;6.70;;;2.23;;
665;SDS011;315;48.738;9.126;2024-01-06T05:14:58;7.50;;;2.70;;
665;SDS011;315;48.738;9.126;2024-01-06T05:17:24;6.00;;;1.90;;
665;SDS011;315;48.738;9.126;2024-01-06T05:19:49;4.50;;;1.90;;
665;SDS011;315;48.738;9.126;2024-01-06T05:22:15;4.37;;;2.50;;
665;SDS011;315;48.738;9.126;2024-01-06T05:24:40;3.90;;;1.60;;
665;SDS011;315;48.738;9.126;2024-01-06T05:27:06;2.23;;;1.80;;
665;SDS011;315;48.738;9.126;2024-01-06T05:29:31;1.87;;;1.73;;
665;SDS011;315;48.738;9.126;2024-01-06T05:31:57;5.10;;;1.70;;
665;SDS011;315;48.738;9.126;2024-01-06T05:34:22;4.10;;;1.90;;
665;SDS011;315;48.738;9.126;2024-01-06T05:36:48;6.53;;;2.13;;
665;SDS011;315;48.738;9.126;2024-01-06T05:39:13;3.20;;;2.00;;
665;SDS011;315;48.738;9.126;2024-01-06T05:41:39;2.10;;;2.00;;
665;SDS011;315;48.738;9.126;2024-01-06T05:44:05;2.57;;;1.63;;
665;SDS011;315;48.738;9.126;2024-01-06T05:46:31;6.00;;;2.07;;
665;SDS011;315;48.738;9.126;2024-01-06T05:48:56;3.30;;;2.07;;
665;SDS011;315;48.738;9.126;2024-01-06T05:51:23;2.60;;;1.53;;
665;SDS011;315;48.738;9.126;2024-01-06T05:53:48;2.60;;;2.13;;
665;SDS011;315;48.738;9.126;2024-01-06T05:56:24;2.93;;;2.47;;
665;SDS011;315;48.738;9.126;2024-01-06T05:58:50;3.57;;;2.40;;
665;SDS011;315;48.738;9.126;2024-01-06T06:01:17;6.67;;;2.40;;
665;SDS011;315;48.738;9.126;2024-01-06T06:03:43;5.03;;;2.57;;
665;SDS011;315;48.738;9.126;2024-01-06T06:06:08;2.90;;;1.90;;
665;SDS011;315;48.738;9.126;2024-01-06T06:08:34;3.60;;;2.00;;
665;SDS011;315;48.738;9.126;2024-01-06T06:10:59;2.90;;;2.33;;
665;SDS011;315;48.738;9.126;2024-01-06T06:13:35;3.07;;;1.90;;
665;SDS011;315;48.738;9.126;2024-01-06T06:16:02;3.40;;;2.73;;
665;SDS011;315;48.738;9.126;2024-01-06T06:18:27;4.97;;;2.03;;
665;SDS011;315;48.738;9.126;2024-01-06T06:20:53;3.60;;;2.10;;
665;SDS011;315;48.738;9.126;2024-01-06T06:23:18;2.70;;;2.03;;
665;SDS011;315;48.738;9.126;2024-01-06T06:25:44;1.77;;;1.63;;
665;SDS011;315;48.738;9.126;2024-01-06T06:28:09;2.17;;;1.80;;
665;SDS011;315;48.738;9.126;2024-01-06T06:30:35;2.60;;;1.40;;
665;SDS011;315;48.738;9.126;2024-01-06T06:33:00;1.80;;;1.60;;
665;SDS011;315;48.738;9.126;2024-01-06T06:35:26;2.87;;;1.90;;
665;SDS011;315;48.738;9.126;2024-01-06T06:37:51;5.17;;;2.37;;
665;SDS011;315;48.738;9.126;2024-01-06T06:40:17;2.63;;;2.43;;
665;SDS011;315;48.738;9.126;2024-01-06T06:42:42;2.30;;;2.10;;
665;SDS011;315;48.738;9.126;2024-01-06T06:45:08;3.57;;;2.43;;
665;SDS011;315;48.738;9.126;2024-01-06T06:47:36;4.37;;;2.23;;
665;SDS011;315;48.738;9.126;2024-01-06T06:50:02;2.70;;;2.43;;
665;SDS011;315;48.738;9.126;2024-01-06T06:52:28;2.77;;;1.83;;
665;SDS011;315;48.738;9.126;2024-01-06T06:54:53;3.70;;;2.20;;
665;SDS011;315;48.738;9.126;2024-01-06T06:57:19;2.63;;;2.13;;
665;SDS011;315;48.738;9.126;2024-01-06T06:59:44;10.07;;;5.40;;
665;SDS011;315;48.738;9.126;2024-01-06T07:02:10;5.97;;;3.30;;
665;SDS011;315;48.738;9.126;2024-01-06T07:04:35;2.90;;;2.00;;
665;SDS011;315;48.738;9.126;2024-01-06T07:07:01;3.13;;;2.00;;
665;SDS011;315;48.738;9.126;2024-01-06T07:09:27;5.60;;;2.73;;
665;SDS011;315;48.738;9.126;2024-01-06T07:11:52;3.60;;;1.93;;
665;SDS011;315;48.738;9.126;2024-01-06T07:14:18;5.13;;;2.47;;
665;SDS011;315;48.738;9.126;2024-01-06T07:16:43;4.80;;;2.57;;
665;SDS011;315;48.738;9.126;2024-01-06T07:19:09;3.77;;;2.30;;
665;SDS011;315;48.738;9.126;2024-01-06T07:21:34;2.23;;;2.03;;
665;SDS011;315;48.738;9.126;2024-01-06T07:24:00;4.10;;;2.33;;
665;SDS011;315;48.738;9.126;2024-01-06T07:26:26;4.37;;;3.13;;
665;SDS011;315;48.738;9.126;2024-01-06T07:28:52;5.83;;;3.83;;
665;SDS011;315;48.738;9.126;2024-01-06T07:31:17;7.63;;;4.47;;
665;SDS011;315;48.738;9.126;2024-01-06T07:33:43;13.93;;;9.23;;
665;SDS011;315;48.738;9.126;2024-01-06T07:36:08;8.10;;;4.20;;
665;SDS011;315;48.738;9.126;2024-01-06T07:38:34;5.83;;;4.10;;
665;SDS011;315;48.738;9.126;2024-01-06T07:40:59;5.70;;;3.27;;
665;SDS011;315;48.738;9.126;2024-01-06T07:43:25;3.27;;;2.13;;
665;SDS011;315;48.738;9.126;2024-01-06T07:45:51;4.17;;;3.13;;
665;SDS011;315;48.738;9.126;2024-01-06T07:48:16;4.17;;;3.20;;
665;SDS011;315;48.738;9.126;2024-01-06T07:50:42;2.47;;;2.27;;
665;SDS011;315;48.738;9.126;2024-01-06T07:53:07;3.27;;;2.73;;
665;SDS011;315;48.738;9.126;2024-01-06T07:55:33;3.73;;;3.13;;
665;SDS011;315;48.738;9.126;2024-01-06T07:57:58;2.80;;;2.60;;
665;SDS011;315;48.738;9.126;2024-01-06T08:00:24;2.13;;;1.97;;
665;SDS011;315;48.738;9.126;2024-01-06T08:02:50;4.43;;;2.87;;
665;SDS011;315;48.738;9.126;2024-01-06T08:05:15;6.70;;;2.53;;
665;SDS011;315;48.738;9.126;2024-01-06T08:07:41;3.00;;;2.70;;
665;SDS011;315;48.738;9.126;2024-01-06T08:10:07;2.83;;;2.50;;
665;SDS011;315;48.738;9.126;2024-01-06T08:12:33;2.10;;;2.00;;
665;SDS011;315;48.738;9.126;2024-01-06T08:14:59;6.47;;;2.57;;
665;SDS011;315;48.738;9.126;2024-01-06T08:17:25;9.70;;;3.10;;
665;SDS011;315;48.738;9.126;2024-01-06T08:19:50;3.13;;;2.30;;
665;SDS011;315;48.738;9.126;2024-01-06T08:22:16;4.90;;;2.83;;
665;SDS011;315;48.738;9.126;2024-01-06T08:24:41;3.20;;;2.57;;
665;SDS011;315;48.738;9.126;2024-01-06T08:27:07;3.03;;;2.80;;
665;SDS011;315;48.738;9.126;2024-01-06T08:29:32;4.00;;;2.70;;
665;SDS011;315;48.738;9.126;2024-01-06T08:31:59;2.63;;;2.43;;
665;SDS011;315;48.738;9.126;2024-01-06T08:34:24;2.23;;;2.13;;
665;SDS011;315;48.738;9.126;2024-01-06T08:36:50;5.10;;;2.57;;
665;SDS011;315;48.738;9.126;2024-01-06T08:39:16;2.40;;;2.20;;
665;SDS011;315;48.738;9.126;2024-01-06T08:41:41;5.40;;;2.50;;
665;SDS011;315;48.738;9.126;2024-01-06T08:44:07;3.30;;;3.00;;
665;SDS011;315;48.738;9.126;2024-01-06T08:46:32;2.73;;;2.53;;
665;SDS011;315;48.738;9.126;2024-01-06T08:48:58;6.50;;;2.77;;
665;SDS011;315;48.738;9.126;2024-01-06T08:51:25;2.93;;;2.63;;
665;SDS011;315;48.738;9.126;2024-01-06T08:53:51;6.03;;;3.33;;
665;SDS011;315;48.738;9.126;2024-01-06T08:56:17;4.33;;;2.50;;
665;SDS011;315;48.738;9.126;2024-01-06T08:58:42;2.77;;;2.37;;
665;SDS011;315;48.738;9.126;2024-01-06T09:01:08;3.20;;;2.90;;
665;SDS011;315;48.738;9.126;2024-01-06T09:03:34;2.50;;;2.30;;
665;SDS011;315;48.738;9.126;2024-01-06T09:05:59;4.13;;;3.70;;
665;SDS011;315;48.738;9.126;2024-01-06T09:08:25;2.30;;;1.97;;
665;SDS011;315;48.738;9.126;2024-01-06T09:10:51;3.23;;;2.93;;
665;SDS011;315;48.738;9.126;2024-01-06T09:13:17;2.67;;;2.20;;
665;SDS011;315;48.738;9.126;2024-01-06T09:15:43;3.07;;;1.90;;
665;SDS011;315;48.738;9.126;2024-01-06T09:18:08;3.63;;;2.20;;
665;SDS011;315;48.738;9.126;2024-01-06T09:20:34;7.20;;;2.50;;
665;SDS011;315;48.738;9.126;2024-01-06T09:23:00;2.90;;;2.10;;
665;SDS011;315;48.738;9.126;2024-01-06T09:25:25;2.20;;;2.00;;
665;SDS011;315;48.738;9.126;2024-01-06T09:27:51;5.93;;;2.00;;
665;SDS011;315;48.738;9.126;2024-01-06T09:30:18;2.70;;;2.50;;
665;SDS011;315;48.738;9.126;2024-01-06T09:32:43;2.90;;;2.20;;
665;SDS011;315;48.738;9.126;2024-01-06T09:35:09;7.20;;;5.00;;
665;SDS011;315;48.738;9.126;2024-01-06T09:37:35;3.80;;;3.40;;
665;SDS011;315;48.738;9.126;2024-01-06T09:40:00;2.00;;;1.90;;
665;SDS011;315;48.738;9.126;2024-01-06T09:42:25;3.30;;;3.10;;
665;SDS011;315;48.738;9.126;2024-01-06T09:44:51;3.23;;;1.97;;
665;SDS011;315;48.738;9.126;2024-01-06T09:47:17;3.80;;;2.40;;
665;SDS011;315;48.738;9.126;2024-01-06T09:49:45;5.00;;;4.30;;
665;SDS011;315;48.738;9.126;2024-01-06T09:52:14;3.07;;;2.60;;
665;SDS011;315;48.738;9.126;2024-01-06T09:54:46;2.40;;;2.20;;
665;SDS011;315;48.738;9.126;2024-01-06T09:57:19;2.50;;;2.30;;
665;SDS011;315;48.738;9.126;2024-01-06T09:59:45;2.17;;;1.83;;
665;SDS011;315;48.738;9.126;2024-01-06T10:02:15;2.30;;;2.10;;
665;SDS011;315;48.738;9.126;2024-01-06T10:04:42;2.30;;;2.10;;
665;SDS011;315;48.738;9.126;2024-01-06T10:07:08;1.73;;;1.63;;
665;SDS011;315;48.738;9.126;2024-01-06T10:09:37;2.17;;;1.97;;
665;SDS011;315;48.738;9.126;2024-01-06T10:12:03;2.67;;;2.47;;
665;SDS011;315;48.738;9.126;2024-01-06T10:14:28;2.10;;;1.80;;
665;SDS011;315;48.738;9.126;2024-01-06T10:16:54;2.80;;;2.53;;
665;SDS011;315;48.738;9.126;2024-01-06T10:19:20;1.97;;;1.80;;
665;SDS011;315;48.738;9.126;2024-01-06T10:21:46;1.70;;;1.57;;
665;SDS011;315;48.738;9.126;2024-01-06T10:24:11;1.57;;;1.47;;
665;SDS011;315;48.738;9.126;2024-01-06T10:26:37;2.10;;;1.80;;
665;SDS011;315;48.738;9.126;2024-01-06T10:29:03;4.20;;;3.77;;
665;SDS011;315;48.738;9.126;2024-01-06T10:31:29;2.10;;;1.70;;
665;SDS011;315;48.738;9.126;2024-01-06T10:33:55;1.47;;;1.27;;
665;SDS011;315;48.738;9.126;2024-01-06T10:36:24;2.70;;;1.60;;
665;SDS011;315;48.738;9.126;2024-01-06T10:38:52;2.60;;;2.20;;
665;SDS011;315;48.738;9.126;2024-01-06T10:41:17;3.03;;;2.20;;
665;SDS011;315;48.738;9.126;2024-01-06T10:43:45;2.13;;;2.00;;
665;SDS011;315;48.738;9.126;2024-01-06T10:46:12;1.83;;;1.73;;
665;SDS011;315;48.738;9.126;2024-01-06T10:48:40;1.83;;;1.73;;
665;SDS011;315;48.738;9.126;2024-01-06T10:51:11;2.27;;;2.07;;
665;SDS011;315;48.738;9.126;2024-01-06T10:53:39;2.70;;;1.80;;
665;SDS011;315;48.738;9.126;2024-01-06T10:56:06;1.57;;;1.17;;
665;SDS011;315;48.738;9.126;2024-01-06T10:58:33;1.47;;;1.37;;
665;SDS011;315;48.738;9.126;2024-01-06T11:01:02;1.50;;;1.40;;
665;SDS011;315;48.738;9.126;2024-01-06T11:03:29;3.20;;;1.30;;
665;SDS011;315;48.738;9.126;2024-01-06T11:05:55;1.77;;;1.67;;
665;SDS011;315;48.738;9.126;2024-01-06T11:08:22;1.40;;;1.30;;
665;SDS011;315;48.738;9.126;2024-01-06T11:10:50;1.43;;;1.33;;
665;SDS011;315;48.738;9.126;2024-01-06T11:13:20;1.80;;;1.67;;
665;SDS011;315;48.738;9.126;2024-01-06T11:15:48;1.37;;;1.27;;
665;SDS011;315;48.738;9.126;2024-01-06T11:21:19;1.77;;;1.67;;
665;SDS011;315;48.738;9.126;2024-01-06T11:26:44;1.30;;;1.20;;
665;SDS011;315;48.738;9.126;2024-01-06T11:29:10;1.27;;;1.17;;
665;SDS011;315;48.738;9.126;2024-01-06T11:31:36;2.20;;;2.00;;
665;SDS011;315;48.738;9.126;2024-01-06T11:34:12;1.40;;;1.30;;
665;SDS011;315;48.738;9.126;2024-01-06T11:36:39;1.20;;;1.10;;
665;SDS011;315;48.738;9.126;2024-01-06T11:39:05;1.10;;;1.10;;
665;SDS011;315;48.738;9.126;2024-01-06T11:41:49;1.20;;;1.13;;
665;SDS011;315;48.738;9.126;2024-01-06T11:44:22;1.40;;;1.30;;
665;SDS011;315;48.738;9.126;2024-01-06T11:46:47;2.73;;;2.13;;
665;SDS011;315;48.738;9.126;2024-01-06T11:49:16;2.20;;;1.23;;
665;SDS011;315;48.738;9.126;2024-01-06T11:51:45;1.87;;;1.77;;
665;SDS011;315;48.738;9.126;2024-01-06T11:54:11;1.80;;;1.70;;
665;SDS011;315;48.738;9.126;2024-01-06T11:56:37;1.50;;;1.40;;
665;SDS011;315;48.738;9.126;2024-01-06T11:59:03;1.70;;;1.10;;
665;SDS011;315;48.738;9.126;2024-01-06T12:01:35;1.07;;;1.07;;
665;SDS011;315;48.738;9.126;2024-01-06T12:04:04;1.27;;;1.20;;
665;SDS011;315;48.738;9.126;2024-01-06T12:06:31;1.50;;;1.40;;
665;SDS011;315;48.738;9.126;2024-01-06T12:09:05;1.40;;;1.30;;
665;SDS011;315;48.738;9.126;2024-01-06T12:11:31;1.53;;;1.43;;
665;SDS011;315;48.738;9.126;2024-01-06T12:13:56;1.50;;;1.40;;
665;SDS011;315;48.738;9.126;2024-01-06T12:16:22;1.80;;;1.70;;
665;SDS011;315;48.738;9.126;2024-01-06T12:18:51;1.70;;;1.60;;
665;SDS011;315;48.738;9.126;2024-01-06T12:21:22;1.83;;;1.73;;
665;SDS011;315;48.738;9.126;2024-01-06T12:23:48;2.90;;;1.80;;
665;SDS011;315;48.738;9.126;2024-01-06T12:26:13;1.60;;;1.50;;
665;SDS011;315;48.738;9.126;2024-01-06T12:28:39;2.60;;;1.93;;
665;SDS011;315;48.738;9.126;2024-01-06T12:31:04;2.10;;;1.93;;
665;SDS011;315;48.738;9.126;2024-01-06T12:33:34;1.90;;;1.70;;
665;SDS011;315;48.738;9.126;2024-01-06T12:36:02;9.23;;;4.60;;
665;SDS011;315;48.738;9.126;2024-01-06T12:38:29;11.17;;;8.70;;
665;SDS011;315;48.738;9.126;2024-01-06T12:40:55;3.67;;;3.37;;
665;SDS011;315;48.738;9.126;2024-01-06T12:43:21;4.67;;;3.37;;
665;SDS011;315;48.738;9.126;2024-01-06T12:45:46;3.77;;;2.80;;
665;SDS011;315;48.738;9.126;2024-01-06T12:48:12;2.23;;;2.07;;
665;SDS011;315;48.738;9.126;2024-01-06T12:50:38;2.13;;;2.00;;
665;SDS011;315;48.738;9.126;2024-01-06T12:53:03;2.00;;;1.80;;
665;SDS011;315;48.738;9.126;2024-01-06T12:55:29;1.80;;;1.70;;
665;SDS011;315;48.738;9.126;2024-01-06T12:57:55;2.80;;;2.43;;
665;SDS011;315;48.738;9.126;2024-01-06T13:00:20;4.00;;;3.30;;
665;SDS011;315;48.738;9.126;2024-01-06T13:02:46;3.70;;;3.00;;
665;SDS011;315;48.738;9.126;2024-01-06T13:05:11;3.80;;;2.80;;
665;SDS011;315;48.738;9.126;2024-01-06T13:07:38;4.03;;;3.13;;
665;SDS011;315;48.738;9.126;2024-01-06T13:10:04;4.00;;;3.70;;
665;SDS011;315;48.738;9.126;2024-01-06T13:12:30;3.63;;;3.33;;
665;SDS011;315;48.738;9.126;2024-01-06T13:14:55;4.27;;;3.30;;
665;SDS011;315;48.738;9.126;2024-01-06T13:17:21;3.50;;;3.20;;
665;SDS011;315;48.738;9.126;2024-01-06T13:19:47;3.83;;;3.33;;
665;SDS011;315;48.738;9.126;2024-01-06T13:22:12;3.43;;;2.80;;
665;SDS011;315;48.738;9.126;2024-01-06T13:24:39;2.90;;;2.70;;
665;SDS011;315;48.738;9.126;2024-01-06T13:27:05;3.70;;;2.70;;
665;SDS011;315;48.738;9.126;2024-01-06T13:29:31;6.07;;;5.47;;
665;SDS011;315;48.738;9.126;2024-01-06T13:31:56;3.87;;;3.57;;
665;SDS011;315;48.738;9.126;2024-01-06T13:34:24;3.73;;;3.43;;
665;SDS011;315;48.738;9.126;2024-01-06T13:36:49;2.73;;;2.53;;
665;SDS011;315;48.738;9.126;2024-01-06T13:39:15;3.60;;;3.30;;
665;SDS011;315;48.738;9.126;2024-01-06T13:41:48;3.87;;;3.57;;
665;SDS011;315;48.738;9.126;2024-01-06T13:44:14;3.70;;;3.40;;
665;SDS011;315;48.738;9.126;2024-01-06T13:46:40;4.30;;;3.90;;
665;SDS011;315;48.738;9.126;2024-01-06T13:49:09;4.07;;;3.67;;
665;SDS011;315;48.738;9.126;2024-01-06T13:51:39;4.67;;;4.27;;
665;SDS011;315;48.738;9.126;2024-01-06T13:54:05;4.00;;;3.70;;
665;SDS011;315;48.738;9.126;2024-01-06T13:56:30;4.17;;;3.83;;
665;SDS011;315;48.738;9.126;2024-01-06T13:58:56;4.43;;;3.93;;
665;SDS011;315;48.738;9.126;2024-01-06T14:01:22;6.90;;;6.20;;
665;SDS011;315;48.738;9.126;2024-01-06T14:03:48;8.47;;;7.37;;
665;SDS011;315;48.738;9.126;2024-01-06T14:06:14;6.83;;;6.13;;
665;SDS011;315;48.738;9.126;2024-01-06T14:08:42;6.10;;;5.50;;
665;SDS011;315;48.738;9.126;2024-01-06T14:11:08;6.00;;;5.03;;
665;SDS011;315;48.738;9.126;2024-01-06T14:13:34;5.30;;;4.73;;
665;SDS011;315;48.738;9.126;2024-01-06T14:15:59;5.70;;;4.47;;
665;SDS011;315;48.738;9.126;2024-01-06T14:18:25;4.20;;;3.70;;
665;SDS011;315;48.738;9.126;2024-01-06T14:20:52;5.00;;;4.50;;
665;SDS011;315;48.738;9.126;2024-01-06T14:23:20;5.57;;;5.03;;
665;SDS011;315;48.738;9.126;2024-01-06T14:25:46;4.90;;;3.90;;
665;SDS011;315;48.738;9.126;2024-01-06T14:28:12;5.30;;;4.90;;
665;SDS011;315;48.738;9.126;2024-01-06T14:30:37;5.77;;;5.27;;
665;SDS011;315;48.738;9.126;2024-01-06T14:33:03;4.53;;;4.13;;
665;SDS011;315;48.738;9.126;2024-01-06T14:35:28;4.90;;;4.50;;
665;SDS011;315;48.738;9.126;2024-01-06T14:37:54;5.83;;;5.13;;
665;SDS011;315;48.738;9.126;2024-01-06T14:40:19;6.33;;;5.70;;
665;SDS011;315;48.738;9.126;2024-01-06T14:42:45;6.00;;;5.40;;
665;SDS011;315;48.738;9.126;2024-01-06T14:45:10;7.67;;;6.47;;
665;SDS011;315;48.738;9.126;2024-01-06T14:47:36;4.90;;;4.50;;
665;SDS011;315;48.738;9.126;2024-01-06T14:50:02;4.63;;;4.23;;
665;SDS011;315;48.738;9.126;2024-01-06T14:52:28;4.63;;;4.00;;
665;SDS011;315;48.738;9.126;2024-01-06T14:54:53;7.00;;;4.83;;
665;SDS011;315;48.738;9.126;2024-01-06T14:57:19;5.13;;;4.73;;
665;SDS011;315;48.738;9.126;2024-01-06T14:59:44;5.20;;;4.70;;
665;SDS011;315;48.738;9.126;2024-01-06T15:02:10;5.37;;;4.87;;
665;SDS011;315;48.738;9.126;2024-01-06T15:04:38;5.90;;;5.30;;
665;SDS011;315;48.738;9.126;2024-01-06T15:07:04;5.80;;;5.30;;
665;SDS011;315;48.738;9.126;2024-01-06T15:09:30;7.90;;;6.90;;
665;SDS011;315;48.738;9.126;2024-01-06T15:11:55;5.93;;;5.43;;
665;SDS011;315;48.738;9.126;2024-01-06T15:14:21;5.87;;;5.30;;
665;SDS011;315;48.738;9.126;2024-01-06T15:16:46;7.30;;;5.90;;
665;SDS011;315;48.738;9.126;2024-01-06T15:19:12;5.33;;;4.83;;
665;SDS011;315;48.738;9.126;2024-01-06T15:21:38;6.70;;;6.00;;
665;SDS011;315;48.738;9.126;2024-01-06T15:24:04;6.03;;;5.43;;
665;SDS011;315;48.738;9.126;2024-01-06T15:26:30;7.00;;;6.30;;
665;SDS011;315;48.738;9.126;2024-01-06T15:28:56;6.47;;;5.83;;
665;SDS011;315;48.738;9.126;2024-01-06T15:31:23;5.97;;;5.37;;
665;SDS011;315;48.738;9.126;2024-01-06T15:33:49;7.50;;;6.00;;
665;SDS011;315;48.738;9.126;2024-01-06T15:36:15;12.00;;;6.27;;
665;SDS011;315;48.738;9.126;2024-01-06T15:38:40;6.83;;;6.17;;
665;SDS011;315;48.738;9.126;2024-01-06T15:41:06;7.03;;;6.10;;
665;SDS011;315;48.738;9.126;2024-01-06T15:43:31;6.83;;;6.23;;